| Date Time MST |
Temp °F |
RH % |
DewPt °F |
Wind mph |
Dir ° |
Gust mph |
Dir ° |
Press in Hg |
Solar W/m^2 |
Prec in |
|---|---|---|---|---|---|---|---|---|---|---|
| 2026-05-04 21:30 | 49.5 | 83.4 | 44.7 | 2.9 | 6 | 3.6 | 13 | 24.722 | 0.3 | 0.00 |
| 2026-05-04 21:25 | 49.5 | 82.9 | 44.5 | 2.6 | 21 | 3.3 | 2 | 24.721 | 0.3 | 0.00 |
| 2026-05-04 21:20 | 49.5 | 83.2 | 44.7 | 3.5 | 4 | 3.9 | 354 | 24.719 | 0.3 | 0.00 |
| 2026-05-04 21:15 | 49.7 | 83.8 | 45.0 | 2.8 | 323 | 3.6 | 309 | 24.719 | 0.4 | 0.00 |
| 2026-05-04 21:10 | 49.8 | 84.4 | 45.3 | 2.1 | 332 | 2.3 | 323 | 24.717 | 0.4 | 0.00 |
| 2026-05-04 21:05 | 49.5 | 83.3 | 44.7 | 1.8 | 333 | 1.9 | 345 | 24.717 | 0.3 | 0.00 |
| 2026-05-04 21:00 | 49.2 | 82.1 | 44.0 | 2.1 | 346 | 2.2 | 345 | 24.716 | 0.4 | 0.00 |
| 2026-05-04 20:55 | 49.2 | 82.9 | 44.2 | 2.1 | 345 | 2.4 | 339 | 24.714 | 0.4 | 0.00 |
| 2026-05-04 20:50 | 49.4 | 83.0 | 44.4 | 2.0 | 347 | 2.4 | 8 | 24.713 | 0.4 | 0.00 |
| 2026-05-04 20:45 | 49.5 | 82.2 | 44.4 | 2.4 | 336 | 2.8 | 318 | 24.713 | 0.4 | 0.00 |
| 2026-05-04 20:40 | 49.6 | 82.0 | 44.4 | 2.0 | 330 | 2.5 | 331 | 24.713 | 0.4 | 0.00 |
| 2026-05-04 20:35 | 49.7 | 81.0 | 44.2 | 1.4 | 271 | 2.3 | 269 | 24.711 | 0.4 | 0.00 |
| 2026-05-04 20:30 | 50.3 | 79.6 | 44.3 | 2.7 | 265 | 4.0 | 281 | 24.710 | 0.3 | 0.00 |
| 2026-05-04 20:25 | 50.7 | 75.9 | 43.4 | 0.1 | 282 | 1.3 | 282 | 24.709 | 0.4 | 0.00 |
| 2026-05-04 20:20 | 50.8 | 76.8 | 43.8 | 0.3 | 207 | 0.9 | 203 | 24.707 | 0.4 | 0.00 |
| 2026-05-04 20:15 | 51.0 | 75.2 | 43.4 | 0.8 | 208 | 1.5 | 148 | 24.706 | 0.4 | 0.00 |
| 2026-05-04 20:10 | 51.1 | 74.2 | 43.2 | 1.4 | 94 | 2.1 | 117 | 24.706 | 0.4 | 0.00 |
| 2026-05-04 20:05 | 51.1 | 74.2 | 43.2 | 1.7 | 153 | 2.8 | 133 | 24.705 | 0.2 | 0.00 |
| 2026-05-04 20:00 | 51.2 | 73.9 | 43.1 | 2.1 | 89 | 3.1 | 97 | 24.705 | 0.0 | 0.00 |
| 2026-05-04 19:55 | 51.3 | 73.3 | 43.0 | 2.5 | 89 | 3.5 | 107 | 24.703 | 0.1 | 0.00 |
| 2026-05-04 19:50 | 51.4 | 72.3 | 42.8 | 2.1 | 126 | 2.8 | 195 | 24.699 | 0.1 | 0.00 |
| 2026-05-04 19:45 | 51.4 | 73.0 | 43.0 | 2.0 | 161 | 2.6 | 123 | 24.698 | 0.0 | 0.00 |
| 2026-05-04 19:40 | 51.5 | 73.5 | 43.3 | 0.6 | 124 | 1.9 | 211 | 24.695 | 0.1 | 0.00 |
| 2026-05-04 19:35 | 51.6 | 73.5 | 43.4 | 2.6 | 213 | 3.6 | 243 | 24.694 | 0.1 | 0.00 |
| 2026-05-04 19:30 | 51.6 | 71.7 | 42.8 | 3.2 | 221 | 4.2 | 207 | 24.692 | 0.1 | 0.00 |
| 2026-05-04 19:25 | 51.5 | 71.5 | 42.6 | 3.7 | 206 | 4.9 | 195 | 24.690 | 0.2 | 0.00 |
| 2026-05-04 19:20 | 51.5 | 72.8 | 43.1 | 4.1 | 200 | 5.7 | 180 | 24.687 | 0.4 | 0.00 |
| 2026-05-04 19:15 | 51.6 | 72.0 | 42.9 | 3.5 | 188 | 4.8 | 190 | 24.690 | 0.5 | 0.00 |
| 2026-05-04 19:10 | 51.9 | 71.5 | 43.0 | 3.7 | 193 | 4.8 | 174 | 24.690 | 0.9 | 0.00 |
| 2026-05-04 19:05 | 52.0 | 69.9 | 42.5 | 4.1 | 156 | 5.5 | 160 | 24.688 | 2.5 | 0.00 |
| Date Time MST |
Temp °C |
RH % |
DewPt °C |
Wind m/s |
Dir ° |
Gust m/s |
Dir ° |
Press hPa |
Solar W/m^2 |
Prec mm |
|---|---|---|---|---|---|---|---|---|---|---|
| 2026-05-04 21:30 | 9.7 | 83.4 | 7.0 | 1.3 | 6 | 1.6 | 13 | 837.17 | 0.3 | 0.00 |
| 2026-05-04 21:25 | 9.7 | 82.9 | 7.0 | 1.2 | 21 | 1.5 | 2 | 837.14 | 0.3 | 0.00 |
| 2026-05-04 21:20 | 9.7 | 83.2 | 7.0 | 1.6 | 4 | 1.7 | 354 | 837.08 | 0.3 | 0.00 |
| 2026-05-04 21:15 | 9.8 | 83.8 | 7.2 | 1.2 | 323 | 1.6 | 309 | 837.08 | 0.4 | 0.00 |
| 2026-05-04 21:10 | 9.9 | 84.4 | 7.4 | 0.9 | 332 | 1.0 | 323 | 837.03 | 0.4 | 0.00 |
| 2026-05-04 21:05 | 9.8 | 83.3 | 7.1 | 0.8 | 333 | 0.9 | 345 | 837.01 | 0.3 | 0.00 |
| 2026-05-04 21:00 | 9.6 | 82.1 | 6.7 | 0.9 | 346 | 1.0 | 345 | 836.98 | 0.4 | 0.00 |
| 2026-05-04 20:55 | 9.6 | 82.9 | 6.8 | 0.9 | 345 | 1.1 | 339 | 836.93 | 0.4 | 0.00 |
| 2026-05-04 20:50 | 9.7 | 83.0 | 6.9 | 0.9 | 347 | 1.1 | 8 | 836.89 | 0.4 | 0.00 |
| 2026-05-04 20:45 | 9.8 | 82.2 | 6.9 | 1.1 | 336 | 1.3 | 318 | 836.88 | 0.4 | 0.00 |
| 2026-05-04 20:40 | 9.8 | 82.0 | 6.9 | 0.9 | 330 | 1.1 | 331 | 836.89 | 0.4 | 0.00 |
| 2026-05-04 20:35 | 9.9 | 81.0 | 6.8 | 0.6 | 271 | 1.0 | 269 | 836.81 | 0.4 | 0.00 |
| 2026-05-04 20:30 | 10.2 | 79.6 | 6.8 | 1.2 | 265 | 1.8 | 281 | 836.77 | 0.3 | 0.00 |
| 2026-05-04 20:25 | 10.4 | 75.9 | 6.3 | 0.1 | 282 | 0.6 | 282 | 836.75 | 0.4 | 0.00 |
| 2026-05-04 20:20 | 10.5 | 76.8 | 6.6 | 0.1 | 207 | 0.4 | 203 | 836.67 | 0.4 | 0.00 |
| 2026-05-04 20:15 | 10.5 | 75.2 | 6.3 | 0.4 | 208 | 0.7 | 148 | 836.62 | 0.4 | 0.00 |
| 2026-05-04 20:10 | 10.6 | 74.2 | 6.2 | 0.6 | 94 | 1.0 | 117 | 836.62 | 0.4 | 0.00 |
| 2026-05-04 20:05 | 10.6 | 74.2 | 6.2 | 0.8 | 153 | 1.2 | 133 | 836.61 | 0.2 | 0.00 |
| 2026-05-04 20:00 | 10.6 | 73.9 | 6.2 | 0.9 | 89 | 1.4 | 97 | 836.61 | 0.0 | 0.00 |
| 2026-05-04 19:55 | 10.7 | 73.3 | 6.1 | 1.1 | 89 | 1.6 | 107 | 836.55 | 0.1 | 0.00 |
| 2026-05-04 19:50 | 10.8 | 72.3 | 6.0 | 0.9 | 126 | 1.2 | 195 | 836.40 | 0.1 | 0.00 |
| 2026-05-04 19:45 | 10.8 | 73.0 | 6.1 | 0.9 | 161 | 1.2 | 123 | 836.37 | 0.0 | 0.00 |
| 2026-05-04 19:40 | 10.8 | 73.5 | 6.3 | 0.2 | 124 | 0.8 | 211 | 836.27 | 0.1 | 0.00 |
| 2026-05-04 19:35 | 10.9 | 73.5 | 6.3 | 1.2 | 213 | 1.6 | 243 | 836.23 | 0.1 | 0.00 |
| 2026-05-04 19:30 | 10.9 | 71.7 | 6.0 | 1.4 | 221 | 1.9 | 207 | 836.17 | 0.1 | 0.00 |
| 2026-05-04 19:25 | 10.8 | 71.5 | 5.9 | 1.7 | 206 | 2.2 | 195 | 836.09 | 0.2 | 0.00 |
| 2026-05-04 19:20 | 10.8 | 72.8 | 6.1 | 1.8 | 200 | 2.5 | 180 | 836.01 | 0.4 | 0.00 |
| 2026-05-04 19:15 | 10.9 | 72.0 | 6.1 | 1.6 | 188 | 2.1 | 190 | 836.10 | 0.5 | 0.00 |
| 2026-05-04 19:10 | 11.0 | 71.5 | 6.1 | 1.7 | 193 | 2.2 | 174 | 836.08 | 0.9 | 0.00 |
| 2026-05-04 19:05 | 11.1 | 69.9 | 5.8 | 1.8 | 156 | 2.5 | 160 | 836.04 | 2.5 | 0.00 |






